J9306 / 9K-CAK 7700 Squawk Report (26th of June, 2019)

Aircraft A320 Reg No. 9K-CAK Age 9 years old
Model A320 Jet engines 2 First flight 10-12-09
Registered 11-01-10 Rollout 12-09 Delivered 11-01-10
Construction No. 4162 Line No. N/A Series 214
ADSHEX 70620C Airline name Jazeera Airways Owner Al Sahaab Aircraft Leasing
Airfield based Kuwait International~ ~9K First tracked 2017-07-13 02:46:00
Time Lat Lon Altitude Heading Speed Vertical Rate
2019-06-26 15:36:10 GMT 40.889439 29.284494 0 33 0 0
2019-06-26 15:36:10 GMT 40.889439 29.284494 0 33 0 0
2019-06-26 15:36:10 GMT 40.889439 29.284494 0 33 0 0
2019-06-26 15:36:10 GMT 40.889439 29.284494 0 33 0 0
2019-06-26 15:36:08 GMT 40.888878 29.282995 425 65 126 -768
2019-06-26 15:35:56 GMT 40.885941 29.274780 575 63 127 -640
2019-06-26 15:35:45 GMT 40.883015 29.266891 700 64 127 -832
2019-06-26 15:35:37 GMT 40.880905 29.261047 800 64 127 -896
2019-06-26 15:35:32 GMT 40.879662 29.257528 875 64 128 -768
2019-06-26 15:35:29 GMT 40.877975 29.253052 950 65 125 -448
2019-06-26 15:35:23 GMT 40.877567 29.251909 975 64 125 -768
2019-06-26 15:35:12 GMT 40.874680 29.244019 1,100 64 126 -704
2019-06-26 15:35:06 GMT 40.872757 29.238708 1,200 63 129 -768
2019-06-26 15:34:57 GMT 40.870468 29.232605 1,325 64 127 -896
2019-06-26 15:34:53 GMT 40.869781 29.230652 1,350 64 127 -832
2019-06-26 15:34:46 GMT 40.867813 29.225281 1,450 64 129 -704
2019-06-26 15:34:43 GMT 40.866955 29.222883 1,500 64 129 -576
2019-06-26 15:34:35 GMT 40.865021 29.217712 1,575 63 133 -768
2019-06-26 15:34:30 GMT 40.863556 29.213928 1,625 63 135 -896
2019-06-26 15:34:24 GMT 40.861816 29.209167 1,725 64 135 -1216
2019-06-26 15:34:20 GMT 40.860718 29.206177 1,800 64 135 -896
2019-06-26 15:34:14 GMT 40.859207 29.202026 1,875 64 132 -960
2019-06-26 15:34:09 GMT 40.857365 29.197166 1,950 64 134 -640
2019-06-26 15:34:03 GMT 40.856197 29.193981 2,025 64 130 -704
2019-06-26 15:33:57 GMT 40.854477 29.189177 2,075 63 135 -512
2019-06-26 15:33:52 GMT 40.853172 29.185741 2,100 64 138 -512
2019-06-26 15:33:46 GMT 40.851334 29.180786 2,200 63 139 -832
2019-06-26 15:33:42 GMT 40.850372 29.178162 2,250 62 140 -704
2019-06-26 15:33:35 GMT 40.848129 29.172424 2,375 63 139 -896
2019-06-26 15:33:29 GMT 40.846802 29.168945 2,425 61 138 -1088
2019-06-26 15:33:21 GMT 40.844238 29.162720 2,575 62 137 -768
2019-06-26 15:33:10 GMT 40.841080 29.154663 2,725 62 135 -832
2019-06-26 15:33:00 GMT 40.837952 29.146852 2,850 60 136 -384
2019-06-26 15:32:48 GMT 40.833996 29.138926 2,875 50 135 64
2019-06-26 15:32:39 GMT 40.829201 29.132933 2,875 33 139 0
2019-06-26 15:32:27 GMT 40.822495 29.130127 2,875 349 148 0
2019-06-26 15:32:15 GMT 40.814861 29.134619 2,875 325 160 0
2019-06-26 15:32:07 GMT 40.809879 29.139299 2,900 325 164 -128
2019-06-26 15:32:02 GMT 40.807388 29.141602 2,900 325 166 -384
2019-06-26 15:31:55 GMT 40.800522 29.148165 3,025 324 171 -960
2019-06-26 15:31:45 GMT 40.795959 29.152472 3,125 325 172 -1024
2019-06-26 15:31:41 GMT 40.793060 29.155151 3,200 325 174 -896
2019-06-26 15:31:35 GMT 40.789211 29.158775 3,300 325 174 -1024
2019-06-26 15:31:29 GMT 40.784546 29.163147 3,400 325 176 -1088
2019-06-26 15:31:23 GMT 40.782028 29.165588 3,475 324 176 -1152
2019-06-26 15:31:16 GMT 40.777431 29.169950 3,600 324 177 -704
2019-06-26 15:31:13 GMT 40.774979 29.172302 3,625 324 180 -640
2019-06-26 15:31:03 GMT 40.767792 29.179321 3,775 324 183 -1280
2019-06-26 15:30:51 GMT 40.760330 29.186584 4,000 324 188 -1024
2019-06-26 15:30:45 GMT 40.755646 29.191174 4,125 324 192 -1344
2019-06-26 15:30:41 GMT 40.752762 29.194044 4,200 324 196 -192
2019-06-26 15:30:33 GMT 40.747082 29.199474 4,225 325 208 -768
2019-06-26 15:30:29 GMT 40.744240 29.202160 4,275 325 209 -704
2019-06-26 15:30:20 GMT 40.736389 29.209595 4,375 325 212 -128
2019-06-26 15:30:16 GMT 40.733906 29.211897 4,375 325 213 0
2019-06-26 15:30:09 GMT 40.727573 29.217953 4,400 324 216 0
2019-06-26 15:30:04 GMT 40.724167 29.221252 4,400 324 215 0
2019-06-26 15:29:59 GMT 40.719040 29.226318 4,400 323 219 0
2019-06-26 15:29:53 GMT 40.714050 29.231262 4,375 324 228 -256
2019-06-26 15:29:48 GMT 40.709930 29.235306 4,400 324 232 -256
2019-06-26 15:29:44 GMT 40.707367 29.237732 4,425 324 236 -448
2019-06-26 15:29:40 GMT 40.703476 29.241516 4,450 324 238 -448
2019-06-26 15:29:37 GMT 40.699364 29.245481 4,475 324 241 -512
2019-06-26 15:29:33 GMT 40.697205 29.247498 4,500 325 242 -512
2019-06-26 15:29:28 GMT 40.693081 29.251411 4,550 325 245 -896
2019-06-26 15:29:25 GMT 40.690334 29.254032 4,600 325 246 -1024
2019-06-26 15:29:22 GMT 40.687225 29.256958 4,650 325 247 -1216
2019-06-26 15:29:15 GMT 40.680279 29.263521 4,825 325 246 -1344
2019-06-26 15:29:11 GMT 40.676697 29.266846 4,900 325 245 -1408
2019-06-26 15:29:04 GMT 40.670036 29.273071 5,075 325 243 -1728
2019-06-26 15:28:59 GMT 40.665241 29.277567 5,250 325 238 -1600
2019-06-26 15:28:54 GMT 40.660587 29.281935 5,350 325 235 -640
2019-06-26 15:28:48 GMT 40.655464 29.286678 5,400 325 235 64
2019-06-26 15:28:42 GMT 40.651382 29.290649 5,400 325 234 0
2019-06-26 15:28:37 GMT 40.645798 29.295837 5,400 325 233 0
2019-06-26 15:28:32 GMT 40.641495 29.299866 5,400 325 232 0
2019-06-26 15:28:24 GMT 40.635132 29.305847 5,400 325 233 0
2019-06-26 15:28:21 GMT 40.632561 29.308277 5,375 325 234 0
2019-06-26 15:28:14 GMT 40.625580 29.314894 5,375 325 235 0
2019-06-26 15:28:10 GMT 40.623001 29.317322 5,375 325 237 0
2019-06-26 15:28:01 GMT 40.613022 29.326782 5,375 325 240 -64
2019-06-26 15:27:49 GMT 40.603745 29.335556 5,400 325 244 -64
2019-06-26 15:27:39 GMT 40.593597 29.345169 5,400 325 251 192
2019-06-26 15:27:36 GMT 40.592064 29.346605 5,400 325 252 192
2019-06-26 15:27:26 GMT 40.582565 29.355595 5,400 325 266 -192
2019-06-26 15:27:18 GMT 40.573769 29.364021 5,425 324 274 -384
2019-06-26 15:27:14 GMT 40.570221 29.367432 5,450 324 276 -512
2019-06-26 15:27:07 GMT 40.562550 29.374882 5,550 324 279 -1536
2019-06-26 15:27:04 GMT 40.558502 29.378723 5,650 324 281 -1344
2019-06-26 15:26:52 GMT 40.546417 29.390320 5,800 325 283 -576
2019-06-26 15:26:41 GMT 40.534058 29.401917 5,850 324 282 -512
2019-06-26 15:26:29 GMT 40.521652 29.413818 5,950 324 277 -320
2019-06-26 15:26:16 GMT 40.508129 29.426693 6,100 325 276 -1600
2019-06-26 15:26:06 GMT 40.497665 29.436646 6,325 325 279 -896
2019-06-26 15:25:54 GMT 40.485947 29.447754 6,475 325 285 -1472
2019-06-26 15:25:43 GMT 40.474377 29.458715 6,775 325 284 -1792
2019-06-26 15:25:31 GMT 40.461411 29.471008 7,050 325 285 -1344
2019-06-26 15:25:21 GMT 40.449703 29.482124 7,250 325 289 -896
2019-06-26 15:25:10 GMT 40.438934 29.492249 7,450 325 291 -1536
2019-06-26 15:25:00 GMT 40.427307 29.503174 7,750 325 290 -1728
2019-06-26 15:24:48 GMT 40.415024 29.514771 8,000 325 291 -1024
2019-06-26 15:24:38 GMT 40.402771 29.526306 8,175 325 293 -1024
2019-06-26 15:24:25 GMT 40.389885 29.538429 8,375 325 295 -1024
2019-06-26 15:24:18 GMT 40.381786 29.546106 8,500 325 298 -896
2019-06-26 15:24:14 GMT 40.376293 29.551289 8,575 325 297 -896
2019-06-26 15:24:01 GMT 40.362743 29.564083 8,775 325 298 -1024
2019-06-26 15:23:51 GMT 40.350861 29.575256 8,950 325 300 -1088
2019-06-26 15:23:38 GMT 40.337234 29.588179 9,150 325 300 -1024
2019-06-26 15:23:31 GMT 40.328430 29.596436 9,275 325 299 -960
2019-06-26 15:23:27 GMT 40.323689 29.600851 9,350 325 299 -896
2019-06-26 15:23:21 GMT 40.316284 29.607841 9,450 325 298 -832
2019-06-26 15:23:15 GMT 40.310745 29.613024 9,500 325 298 -512
2019-06-26 15:23:09 GMT 40.304417 29.618954 9,550 325 300 -512
2019-06-26 15:23:02 GMT 40.296268 29.626570 9,625 325 301 -448
2019-06-26 15:22:59 GMT 40.292870 29.629751 9,650 325 302 -576
2019-06-26 15:22:49 GMT 40.279789 29.642050 9,725 325 305 -512
2019-06-26 15:22:40 GMT 40.270065 29.651184 9,800 325 310 -448
2019-06-26 15:22:37 GMT 40.266037 29.654968 9,825 325 311 -512
2019-06-26 15:22:28 GMT 40.257164 29.663336 9,875 325 315 -448
2019-06-26 15:22:25 GMT 40.253357 29.666931 9,900 325 318 -448
2019-06-26 15:22:15 GMT 40.240639 29.678816 9,975 325 325 -320
2019-06-26 15:22:03 GMT 40.226852 29.691772 10,000 325 339 64
2019-06-26 15:21:53 GMT 40.213577 29.704224 9,975 325 350 64
2019-06-26 15:21:41 GMT 40.197922 29.718811 9,975 325 364 0
2019-06-26 15:21:32 GMT 40.184219 29.731564 9,975 325 369 0
2019-06-26 15:21:29 GMT 40.180958 29.734621 9,975 325 369 0
2019-06-26 15:21:16 GMT 40.162338 29.752037 9,975 325 369 0
2019-06-26 15:21:05 GMT 40.145370 29.767822 10,000 325 369 0
2019-06-26 15:21:01 GMT 40.142368 29.770639 10,000 325 367 0
2019-06-26 15:20:48 GMT 40.124176 29.787598 9,975 325 368 0
2019-06-26 15:20:37 GMT 40.108017 29.802673 9,975 325 367 0
2019-06-26 15:20:23 GMT 40.087875 29.821411 9,975 325 367 0
2019-06-26 15:20:10 GMT 40.071095 29.836994 10,000 325 367 0
2019-06-26 15:20:03 GMT 40.061600 29.845886 10,000 325 366 0
2019-06-26 15:20:00 GMT 40.056896 29.850290 10,000 324 369 0
2019-06-26 15:19:46 GMT 40.038696 29.867456 10,000 324 369 0
2019-06-26 15:19:40 GMT 40.030014 29.876038 10,000 320 368 0
2019-06-26 15:19:36 GMT 40.023605 29.883362 9,975 316 368 0
2019-06-26 15:19:24 GMT 40.011646 29.900728 10,000 307 371 0
2019-06-26 15:19:17 GMT 40.004013 29.913961 9,975 307 370 0
2019-06-26 15:19:11 GMT 39.997147 29.925842 9,975 307 371 0
2019-06-26 15:19:03 GMT 39.989319 29.939331 9,975 307 371 0
2019-06-26 15:19:00 GMT 39.986092 29.944923 9,975 307 371 0
2019-06-26 15:18:53 GMT 39.977852 29.959217 9,975 308 372 0
2019-06-26 15:18:50 GMT 39.974918 29.964211 9,975 308 372 -64
2019-06-26 15:18:41 GMT 39.967072 29.977783 10,000 307 370 -64
2019-06-26 15:18:30 GMT 39.955399 29.997864 9,975 307 369 0
2019-06-26 15:18:21 GMT 39.946056 30.014025 9,975 307 367 0
2019-06-26 15:18:17 GMT 39.942490 30.020203 9,975 307 367 0
2019-06-26 15:18:08 GMT 39.932232 30.037931 9,975 308 367 0
2019-06-26 15:18:05 GMT 39.929901 30.041864 9,975 308 366 0
2019-06-26 15:17:54 GMT 39.918732 30.061096 10,000 307 365 0
2019-06-26 15:17:44 GMT 39.908112 30.079432 10,000 307 365 0
2019-06-26 15:17:32 GMT 39.895824 30.100525 10,000 307 364 0
2019-06-26 15:17:20 GMT 39.884327 30.120422 9,975 307 363 0
2019-06-26 15:17:08 GMT 39.871490 30.142544 9,975 308 363 0
2019-06-26 15:16:57 GMT 39.859863 30.162546 9,975 308 363 0
2019-06-26 15:16:44 GMT 39.847961 30.183025 10,000 308 358 0
2019-06-26 15:16:33 GMT 39.835785 30.204103 10,000 308 358 0
2019-06-26 15:16:20 GMT 39.823380 30.225477 9,975 307 359 0
2019-06-26 15:16:17 GMT 39.820084 30.231152 10,000 307 359 64
2019-06-26 15:16:09 GMT 39.811287 30.246399 9,975 307 360 0
2019-06-26 15:16:04 GMT 39.807175 30.253422 9,975 307 360 -64
2019-06-26 15:15:54 GMT 39.796143 30.272530 10,000 307 362 0
2019-06-26 15:15:43 GMT 39.785824 30.290283 10,000 307 364 0
2019-06-26 15:15:31 GMT 39.774124 30.310562 9,975 307 365 0
We lost coverage of the aircraft here for a total of 31 minutes
2019-06-26 14:44:15 GMT 40.405575 33.450249 22,950 121 461 -6016
2019-06-26 14:44:00 GMT 40.419617 33.413086 24,025 111 471 -3776
2019-06-26 14:43:54 GMT 40.423962 33.397938 24,400 108 476 -3904
2019-06-26 14:43:40 GMT 40.434128 33.359070 25,275 108 485 -3904
2019-06-26 14:43:28 GMT 40.443329 33.323967 26,075 109 488 -4352
2019-06-26 14:43:20 GMT 40.449005 33.302368 26,775 108 487 -6144
2019-06-26 14:43:08 GMT 40.457840 33.268677 27,950 108 482 -5312
2019-06-26 14:42:54 GMT 40.467674 33.230709 28,900 108 487 -3840
2019-06-26 14:42:45 GMT 40.474182 33.205750 29,375 108 492 -3392
2019-06-26 14:42:28 GMT 40.486759 33.157112 30,450 108 497 -4416
2019-06-26 14:42:12 GMT 40.498676 33.111294 31,450 108 502 -3904
2019-06-26 14:42:09 GMT 40.500866 33.102867 31,650 108 503 -4288
2019-06-26 14:41:58 GMT 40.509201 33.070557 32,375 108 505 -3648
2019-06-26 14:41:45 GMT 40.518768 33.033386 32,850 108 506 -704
2019-06-26 14:41:31 GMT 40.529114 32.993225 33,000 108 508 -512
2019-06-26 14:41:21 GMT 40.536804 32.963230 33,000 108 507 640
2019-06-26 14:41:08 GMT 40.546417 32.926025 32,875 108 505 768
2019-06-26 14:40:53 GMT 40.558182 32.880066 32,700 108 505 448
2019-06-26 14:40:41 GMT 40.566605 32.847046 32,650 108 501 0
2019-06-26 14:40:28 GMT 40.576328 32.808796 32,550 108 499 1088
2019-06-26 14:40:14 GMT 40.586655 32.767822 32,350 108 498 512
2019-06-26 14:39:56 GMT 40.599152 32.718567 32,250 108 493 768
2019-06-26 14:39:47 GMT 40.605515 32.693253 32,150 108 493 576
2019-06-26 14:39:39 GMT 40.611473 32.669533 32,125 108 490 0
2019-06-26 14:39:27 GMT 40.620178 32.634514 32,025 107 487 1280
2019-06-26 14:39:12 GMT 40.630142 32.593872 31,850 107 487 384
2019-06-26 14:39:02 GMT 40.637375 32.563843 30,825 107 484 -128
2019-06-26 14:38:51 GMT 40.644482 32.534012 31,825 107 478 0
2019-06-26 14:38:39 GMT 40.652527 32.499634 30,825 110 476 1024
2019-06-26 14:38:26 GMT 40.660725 32.464539 31,350 107 479 2368
2019-06-26 14:38:15 GMT 40.667908 32.434326 31,025 107 484 960
2019-06-26 14:38:12 GMT 40.669804 32.426647 30,975 108 484 640
2019-06-26 14:38:05 GMT 40.674911 32.406372 30,925 108 481 0
2019-06-26 14:37:53 GMT 40.683609 32.374146 30,825 110 476 1024
2019-06-26 14:37:42 GMT 40.693359 32.341003 30,375 109 478 704
2019-06-26 14:37:29 GMT 40.703384 32.307495 30,375 108 477 704
2019-06-26 14:37:13 GMT 40.713684 32.265564 29,375 103 470 1088
2019-06-26 14:37:02 GMT 40.720230 32.233398 30,175 103 471 576
2019-06-26 14:36:53 GMT 40.725109 32.206295 30,000 103 470 1280
2019-06-26 14:36:40 GMT 40.730881 32.171150 29,775 100 471 1152
2019-06-26 14:36:29 GMT 40.733860 32.137569 29,575 90 473 896
2019-06-26 14:36:23 GMT 40.733997 32.125523 29,500 84 473 1024
2019-06-26 14:36:17 GMT 40.732975 32.102238 29,375 83 472 960
2019-06-26 14:36:12 GMT 40.732185 32.093872 29,325 81 472 896
2019-06-26 14:36:05 GMT 40.728924 32.072464 29,225 73 471 448
2019-06-26 14:35:54 GMT 40.722107 32.044373 29,125 67 469 1088
2019-06-26 14:35:50 GMT 40.717987 32.031513 29,025 67 469 1088
2019-06-26 14:35:43 GMT 40.711700 32.012787 28,925 66 468 768
2019-06-26 14:35:40 GMT 40.708969 32.004700 28,875 66 467 832
2019-06-26 14:35:28 GMT 40.698109 31.972275 28,700 66 465 896
2019-06-26 14:35:20 GMT 40.691620 31.952515 28,575 66 464 960
2019-06-26 14:35:14 GMT 40.687225 31.939697 28,500 66 463 1344
2019-06-26 14:35:01 GMT 40.675964 31.905762 28,225 66 465 1600
2019-06-26 14:34:50 GMT 40.665337 31.873772 27,925 66 466 704
2019-06-26 14:34:40 GMT 40.657982 31.851736 27,825 66 465 576
2019-06-26 14:34:34 GMT 40.652756 31.836182 27,775 66 463 512
2019-06-26 14:34:31 GMT 40.646667 31.818092 27,700 66 461 896
2019-06-26 14:34:22 GMT 40.642639 31.806030 27,625 66 460 896
2019-06-26 14:34:18 GMT 40.638336 31.793274 27,550 66 459 1088
2019-06-26 14:34:14 GMT 40.633987 31.780334 27,475 66 458 1088
2019-06-26 14:34:11 GMT 40.632469 31.775957 27,425 66 458 1280
2019-06-26 14:34:00 GMT 40.623001 31.747925 27,200 66 457 1216
2019-06-26 14:33:57 GMT 40.620319 31.740065 27,150 66 457 960
2019-06-26 14:33:50 GMT 40.614212 31.722046 27,025 65 455 576
2019-06-26 14:33:47 GMT 40.611649 31.714539 27,000 65 456 384
2019-06-26 14:33:40 GMT 40.604828 31.694641 26,975 65 456 0
2019-06-26 14:33:36 GMT 40.597046 31.672180 27,000 65 456 0
2019-06-26 14:33:28 GMT 40.594482 31.664970 27,000 66 455 0
2019-06-26 14:33:16 GMT 40.585464 31.637756 27,000 68 454 0
2019-06-26 14:33:05 GMT 40.576931 31.607603 27,000 72 454 0
2019-06-26 14:32:54 GMT 40.570740 31.580013 27,000 75 454 0
2019-06-26 14:32:45 GMT 40.565918 31.555725 26,975 75 455 0
2019-06-26 14:32:41 GMT 40.563400 31.542908 27,000 75 457 0
2019-06-26 14:32:34 GMT 40.559895 31.525145 27,000 75 457 0
2019-06-26 14:32:31 GMT 40.558273 31.516846 27,000 75 457 0
2019-06-26 14:32:24 GMT 40.554611 31.498230 27,000 75 457 64
2019-06-26 14:32:20 GMT 40.552307 31.486317 27,000 75 457 0
2019-06-26 14:32:12 GMT 40.548569 31.467163 26,975 75 457 64
2019-06-26 14:32:06 GMT 40.545410 31.451050 27,000 75 457 0
2019-06-26 14:32:02 GMT 40.543076 31.438965 26,975 75 455 448
2019-06-26 14:31:56 GMT 40.540054 31.423706 26,950 75 455 320
2019-06-26 14:31:49 GMT 40.536026 31.403259 26,925 75 454 576
2019-06-26 14:31:42 GMT 40.533005 31.388000 26,825 75 451 832
2019-06-26 14:31:32 GMT 40.527309 31.359600 26,675 75 449 768
2019-06-26 14:31:20 GMT 40.521255 31.329762 26,300 74 447 1280
2019-06-26 14:31:16 GMT 40.518906 31.318237 26,425 74 447 1344
2019-06-26 14:31:08 GMT 40.514648 31.297485 26,200 74 447 1472
2019-06-26 14:31:05 GMT 40.513016 31.289375 26,200 74 447 1472
2019-06-26 14:30:56 GMT 40.507828 31.264343 25,800 74 447 1344
2019-06-26 14:30:46 GMT 40.503021 31.240967 25,800 74 447 1344
2019-06-26 14:30:43 GMT 40.501373 31.233093 25,750 74 446 960
2019-06-26 14:30:38 GMT 40.498352 31.218384 25,650 74 445 896
2019-06-26 14:30:33 GMT 40.495930 31.206791 25,600 74 444 1088
2019-06-26 14:30:28 GMT 40.492813 31.191833 25,475 74 444 1344
2019-06-26 14:30:21 GMT 40.489655 31.176270 25,150 75 443 1600
2019-06-26 14:30:11 GMT 40.484062 31.148676 25,100 75 443 1280
2019-06-26 14:30:03 GMT 40.479904 31.127380 24,925 77 443 1344
2019-06-26 14:30:00 GMT 40.478519 31.119898 24,850 77 443 1344
2019-06-26 14:29:48 GMT 40.474411 31.089539 24,600 91 441 1344
2019-06-26 14:29:41 GMT 40.474190 31.067713 24,475 93 440 1408
2019-06-26 14:29:36 GMT 40.475418 31.052917 24,375 100 439 1280
2019-06-26 14:29:25 GMT 40.480011 31.028887 24,200 113 434 768
2019-06-26 14:29:12 GMT 40.491322 30.998299 24,025 121 428 1408
2019-06-26 14:29:07 GMT 40.498352 30.983826 23,825 122 428 1792
2019-06-26 14:29:02 GMT 40.503517 30.973330 23,775 122 429 1664
2019-06-26 14:28:57 GMT 40.507278 30.965637 23,600 122 429 1856
2019-06-26 14:28:52 GMT 40.513504 30.952820 23,400 122 430 2304
2019-06-26 14:28:42 GMT 40.524143 30.931007 22,975 122 436 3136
2019-06-26 14:28:38 GMT 40.527821 30.923454 22,275 122 441 2880
2019-06-26 14:28:27 GMT 40.541382 30.895630 22,275 122 445 1792
2019-06-26 14:28:20 GMT 40.548443 30.881256 22,075 122 446 1472
2019-06-26 14:28:15 GMT 40.553982 30.870022 22,000 122 444 640
2019-06-26 14:28:11 GMT 40.557755 30.862345 21,925 122 442 768
2019-06-26 14:28:08 GMT 40.562874 30.851919 21,875 122 441 832
2019-06-26 14:28:02 GMT 40.567715 30.842119 21,800 122 439 1216
2019-06-26 14:27:57 GMT 40.574432 30.828369 21,650 122 439 1984
2019-06-26 14:27:52 GMT 40.579166 30.818773 21,325 122 439 1984
2019-06-26 14:27:44 GMT 40.588291 30.800234 21,275 122 439 1536
2019-06-26 14:27:40 GMT 40.593704 30.789368 21,150 122 439 1152
2019-06-26 14:27:33 GMT 40.600906 30.774702 21,000 122 438 1024
2019-06-26 14:27:26 GMT 40.607117 30.762085 20,900 122 437 1088
2019-06-26 14:27:20 GMT 40.614578 30.746826 20,775 122 436 1216
2019-06-26 14:27:15 GMT 40.619247 30.737000 20,700 119 435 1216
2019-06-26 14:27:08 GMT 40.626652 30.718584 20,525 113 435 1472
2019-06-26 14:27:04 GMT 40.635086 30.686707 20,150 101 433 960
2019-06-26 14:26:55 GMT 40.635086 30.686707 20,250 104 434 960
2019-06-26 14:26:52 GMT 40.636139 30.680786 20,200 101 434 960
2019-06-26 14:26:45 GMT 40.639126 30.661345 20,075 101 433 960
2019-06-26 14:26:39 GMT 40.641827 30.643742 19,975 101 432 960
2019-06-26 14:26:34 GMT 40.643360 30.633503 19,900 101 431 960
2019-06-26 14:26:28 GMT 40.646118 30.615479 19,825 101 429 1024
2019-06-26 14:26:24 GMT 40.647583 30.605957 19,750 101 427 1024
2019-06-26 14:26:16 GMT 40.650486 30.586561 19,600 101 424 1088
2019-06-26 14:26:12 GMT 40.651794 30.578125 19,550 101 423 1152
2019-06-26 14:26:02 GMT 40.655914 30.550598 19,325 101 419 1600
2019-06-26 14:25:51 GMT 40.660263 30.521484 19,000 101 419 1792
2019-06-26 14:25:44 GMT 40.662914 30.503727 18,800 101 418 1344
2019-06-26 14:25:38 GMT 40.664543 30.493116 18,700 101 418 1280
2019-06-26 14:25:28 GMT 40.669525 30.459471 18,425 100 414 1664
2019-06-26 14:25:16 GMT 40.674740 30.424389 18,050 101 413 1600
2019-06-26 14:25:12 GMT 40.674740 30.424389 18,025 101 412 1536
2019-06-26 14:25:04 GMT 40.678837 30.396984 17,575 101 408 1600
2019-06-26 14:25:00 GMT 40.678837 30.396984 17,725 101 410 1536
2019-06-26 14:24:54 GMT 40.681164 30.381317 17,575 101 408 1600
2019-06-26 14:24:49 GMT 40.682648 30.371277 17,450 101 407 1792
2019-06-26 14:24:41 GMT 40.685539 30.351667 17,225 100 406 1728
2019-06-26 14:24:38 GMT 40.686401 30.345581 17,150 100 406 1728
2019-06-26 14:24:27 GMT 40.690613 30.317209 16,850 101 403 1536
2019-06-26 14:24:16 GMT 40.694321 30.291931 16,575 100 401 1536
2019-06-26 14:24:06 GMT 40.698200 30.265587 16,250 100 399 2240
2019-06-26 14:24:03 GMT 40.698898 30.260904 16,200 100 399 2432
2019-06-26 14:23:50 GMT 40.703613 30.229065 15,675 101 400 2240
2019-06-26 14:23:44 GMT 40.705948 30.213623 15,475 101 400 1984
2019-06-26 14:23:39 GMT 40.707603 30.202539 15,325 101 399 1664
2019-06-26 14:23:34 GMT 40.709656 30.188965 15,175 101 396 1600
2019-06-26 14:23:28 GMT 40.711899 30.174133 15,025 101 394 2304
2019-06-26 14:23:22 GMT 40.713562 30.163214 14,825 101 394 2240
2019-06-26 14:23:15 GMT 40.716476 30.144043 14,525 101 394 2176
2019-06-26 14:23:01 GMT 40.721478 30.111528 14,125 101 390 1216
2019-06-26 14:22:51 GMT 40.724991 30.088074 14,000 99 388 0
2019-06-26 14:22:40 GMT 40.727463 30.065063 14,000 95 388 0
2019-06-26 14:22:29 GMT 40.728516 30.038818 14,000 91 387 0
2019-06-26 14:22:18 GMT 40.729019 30.012215 14,000 91 387 128
2019-06-26 14:22:08 GMT 40.729477 29.987305 13,950 91 388 640
2019-06-26 14:21:55 GMT 40.730026 29.959229 13,700 91 388 1728
2019-06-26 14:21:52 GMT 40.730137 29.951727 13,700 91 388 1728
2019-06-26 14:21:46 GMT 40.730415 29.937681 13,550 91 385 1472
2019-06-26 14:21:43 GMT 40.730576 29.929138 13,400 91 382 1600
2019-06-26 14:21:35 GMT 40.730942 29.908569 13,225 91 379 1792
2019-06-26 14:21:29 GMT 40.731079 29.898987 13,100 91 378 1984
2019-06-26 14:21:24 GMT 40.731300 29.887493 12,925 91 377 2112
2019-06-26 14:21:19 GMT 40.731537 29.873718 12,725 91 376 2240
2019-06-26 14:21:14 GMT 40.731716 29.862087 12,550 91 375 2240
2019-06-26 14:21:10 GMT 40.731857 29.854126 12,425 91 375 2240
2019-06-26 14:21:07 GMT 40.731949 29.847412 12,250 91 373 2176
2019-06-26 14:21:03 GMT 40.732136 29.835621 12,125 91 373 2240
2019-06-26 14:20:59 GMT 40.732277 29.828817 12,025 91 373 2176
2019-06-26 14:20:55 GMT 40.732464 29.817518 11,850 91 372 2112
2019-06-26 14:20:47 GMT 40.732697 29.801662 11,625 91 371 2112
2019-06-26 14:20:37 GMT 40.733208 29.767456 11,200 91 365 1024
2019-06-26 14:20:30 GMT 40.733322 29.762878 11,150 91 363 896
2019-06-26 14:20:19 GMT 40.733734 29.739624 10,975 91 349 960
2019-06-26 14:20:05 GMT 40.734970 29.708984 10,800 97 339 896
2019-06-26 14:19:54 GMT 40.737911 29.688368 10,650 104 328 896
2019-06-26 14:19:46 GMT 40.740845 29.673510 10,550 104 320 832
2019-06-26 14:19:41 GMT 40.742565 29.664770 10,475 104 316 768
2019-06-26 14:19:36 GMT 40.744949 29.652771 10,400 104 308 832
2019-06-26 14:19:29 GMT 40.747128 29.641739 10,325 104 302 1280
2019-06-26 14:19:25 GMT 40.748520 29.634521 10,225 104 299 1728
2019-06-26 14:19:19 GMT 40.750717 29.623291 10,025 104 296 2624
2019-06-26 14:19:14 GMT 40.752247 29.615395 9,825 104 296 2624
2019-06-26 14:19:07 GMT 40.755039 29.601101 9,500 104 295 2240
2019-06-26 14:19:02 GMT 40.756207 29.595169 9,375 104 294 2112
2019-06-26 14:18:55 GMT 40.760395 29.573822 8,950 104 288 2368
2019-06-26 14:18:41 GMT 40.763626 29.558777 8,600 111 287 2432
2019-06-26 14:18:29 GMT 40.770355 29.540649 8,125 127 288 2560
2019-06-26 14:18:16 GMT 40.784229 29.524071 7,575 147 289 2240
2019-06-26 14:18:06 GMT 40.796520 29.515894 7,275 153 281 1856
2019-06-26 14:17:57 GMT 40.805466 29.510132 7,025 154 276 2560
2019-06-26 14:17:53 GMT 40.810020 29.507217 6,875 153 275 2816
2019-06-26 14:17:47 GMT 40.817459 29.502441 6,575 153 275 2816
2019-06-26 14:17:42 GMT 40.823181 29.498779 6,350 154 274 2496
2019-06-26 14:17:37 GMT 40.829292 29.494921 6,150 154 274 1792
2019-06-26 14:17:30 GMT 40.836647 29.490301 5,900 155 278 320
2019-06-26 14:17:26 GMT 40.842041 29.486938 5,925 154 278 320
2019-06-26 14:17:17 GMT 40.852112 29.480835 5,875 155 279 384
2019-06-26 14:17:14 GMT 40.856945 29.477942 5,850 155 279 384
2019-06-26 14:17:09 GMT 40.861412 29.475258 5,825 155 278 448
2019-06-26 14:17:04 GMT 40.867859 29.471436 5,750 155 273 1280
2019-06-26 14:16:57 GMT 40.874866 29.467331 5,625 156 266 1856
2019-06-26 14:16:52 GMT 40.880859 29.463806 5,450 156 262 2240
2019-06-26 14:16:48 GMT 40.885620 29.461086 5,300 156 261 2304
2019-06-26 14:16:40 GMT 40.894093 29.456282 4,975 156 260 2688
2019-06-26 14:16:36 GMT 40.898563 29.453720 4,800 156 259 2304
2019-06-26 14:16:25 GMT 40.909927 29.447021 4,400 154 253 1984
2019-06-26 14:16:20 GMT 40.916061 29.443054 4,225 152 250 1664
2019-06-26 14:16:14 GMT 40.921097 29.439026 4,125 140 240 576
2019-06-26 14:16:11 GMT 40.924530 29.434937 4,100 128 226 -128
2019-06-26 14:16:04 GMT 40.928822 29.426693 4,075 114 207 704
2019-06-26 14:16:00 GMT 40.930435 29.421753 4,025 106 199 640
2019-06-26 14:15:51 GMT 40.931763 29.413086 3,950 92 186 768
2019-06-26 14:15:48 GMT 40.931900 29.409973 3,925 89 183 832
2019-06-26 14:15:40 GMT 40.931213 29.401550 3,825 74 170 832
2019-06-26 14:15:37 GMT 40.930527 29.398193 3,775 72 166 1088
2019-06-26 14:15:29 GMT 40.927872 29.389771 3,625 62 148 1216
2019-06-26 14:15:23 GMT 40.926399 29.385992 3,525 62 153 1216
2019-06-26 14:15:16 GMT 40.923798 29.379333 3,350 63 143 1792
2019-06-26 14:15:04 GMT 40.920441 29.370638 3,000 63 142 1920
2019-06-26 14:14:51 GMT 40.916428 29.359741 2,600 64 139 1344
2019-06-26 14:14:41 GMT 40.914017 29.352972 2,400 64 135 1984
We lost coverage of the aircraft here for a total of 17 minutes
2019-06-26 13:57:39 GMT 40.896503 29.297962 0 241 23
2019-06-26 13:57:26 GMT 40.897083 29.299522 0 244 22
2019-06-26 13:57:13 GMT 40.897579 29.300873 0 241 18
2019-06-26 13:57:07 GMT 40.897751 29.301331 0 244 15
2019-06-26 13:56:50 GMT 40.898281 29.302769 0 244 18
2019-06-26 13:56:42 GMT 40.898586 29.303596 0 244 19
2019-06-26 13:56:25 GMT 40.899166 29.305172 0 244 18
2019-06-26 13:56:16 GMT 40.899433 29.305874 0 244 17
2019-06-26 13:55:59 GMT 40.900040 29.307556 0 244 20
2019-06-26 13:55:52 GMT 40.900303 29.308258 0 244 19
2019-06-26 13:55:37 GMT 40.900887 29.309860 0 241 22
2019-06-26 13:55:16 GMT 40.901745 29.312195 0 244 19
2019-06-26 13:55:01 GMT 40.902214 29.313477 0 244 15
2019-06-26 13:54:47 GMT 40.902565 29.314426 0 244 11
2019-06-26 13:54:42 GMT 40.902657 29.314676 0 239 10
2019-06-26 13:54:19 GMT 40.903427 29.314848 0 154 10
2019-06-26 13:54:07 GMT 40.903858 29.314568 0 154 9
2019-06-26 13:51:15 GMT 40.904892 29.315460 0 241 0
2019-06-26 13:49:55 GMT 40.905544 29.314972 0 334 4
We lost coverage of the aircraft here for a total of 5 minutes
2019-06-26 13:44:53 GMT 40.905842 29.314789 0 334 0
2019-06-26 13:44:53 GMT 40.905842 29.314789 0 334 0
2019-06-26 13:44:53 GMT 40.905842 29.314789 0 334 0
2019-06-26 13:44:53 GMT 40.905842 29.314789 0 334 0 0
2019-06-26 13:44:38 GMT 40.905834 29.314785 0 334 0 0
2019-06-26 13:43:53 GMT 40.905830 29.314789 0 334 0 0
2019-06-26 13:43:33 GMT 40.905823 29.314785 0 334 0 0
2019-06-26 13:43:08 GMT 40.905846 29.314785 0 334 0 0
2019-06-26 13:42:53 GMT 40.905846 29.314770 0 334 0 0
2019-06-26 13:42:13 GMT 40.905853 29.314774 0 334 0 0
2019-06-26 13:40:07 GMT 40.905487 29.315083 0 334 0 0
2019-06-26 13:37:42 GMT 40.905846 29.314770 0 334 0 0
2019-06-26 13:36:02 GMT 40.905869 29.314754 0 334 0 0
2019-06-26 13:35:13 GMT 40.905842 29.314774 0 334 0 0
2019-06-26 13:34:28 GMT 40.905842 29.314789 0 334 0 0
2019-06-26 13:34:07 GMT 40.905853 29.314774 0 334 0 0
2019-06-26 13:33:07 GMT 40.905842 29.314789 0 334 0 0
2019-06-26 13:32:47 GMT 40.905846 29.314770 0 334 0 0
2019-06-26 13:32:12 GMT 40.905846 29.314785 0 334 0 0
2019-06-26 13:31:58 GMT 40.905842 29.314789 0 334 0 0
2019-06-26 13:31:38 GMT 40.905853 29.314774 0 334 0 0
2019-06-26 13:30:23 GMT 40.905846 29.314785 0 334 0 0
2019-06-26 13:29:53 GMT 40.905853 29.314789 0 334 0 0
2019-06-26 13:29:33 GMT 40.905846 29.314800 0 334 0 0
2019-06-26 13:29:13 GMT 40.905846 29.314785 0 334 0 0
2019-06-26 13:28:53 GMT 40.905853 29.314789 0 334 0 0
2019-06-26 13:28:13 GMT 40.905861 29.314800 0 334 0 0
2019-06-26 13:28:03 GMT 40.905865 29.314789 0 334 0 0
2019-06-26 13:26:53 GMT 40.905846 29.314785 0 334 0 0
2019-06-26 13:26:33 GMT 40.905842 29.314789 0 334 0 0
2019-06-26 13:25:43 GMT 40.905853 29.314789 0 334 0 0
2019-06-26 13:25:13 GMT 40.905846 29.314800 0 334 0 0
2019-06-26 13:25:08 GMT 40.905853 29.314789 0 334 0 0
2019-06-26 13:24:48 GMT 40.905846 29.314800 0 334 0 0
2019-06-26 13:24:23 GMT 40.905846 29.314785 0 334 0 0
2019-06-26 13:24:08 GMT 40.905853 29.314789 0 334 0 0
2019-06-26 13:23:53 GMT 40.905846 29.314785 0 334 0 0
2019-06-26 13:23:38 GMT 40.905853 29.314789 0 334 0 0
2019-06-26 13:23:28 GMT 40.905846 29.314785 0 334 0 0
2019-06-26 13:23:18 GMT 40.905842 29.314789 0 334 0 0

Making use of Plane Finder data

You are free to use the raw flight data, aircraft information and images provided in this report for your own purposes provided the data is correctly attributed to Plane Finder. We ask that you please credit Plane Finder and link to planefinder.net in close proximity to the content.

Optionally one of the following logos (no smaller then 150x24px) can be used and must link to planefinder.net

Embedding the Plane Finder map

You are welcome to embed the Plane Finder playback map on your website to offer visitors a more interactive experience. We suggest using the following HTML code:

<iframe src="//planefinder.net/data/report/J9306-9K-CAK-7700-squawk-2019-06-26/map" width="800" height="600" seamless="seamless"></iframe>

Where our data comes from

Plane Finder has a global network of data feeds and antenna radars that receive data broadcast directly from aircraft. The primary technologies used are ADS-B and MLAT. We also show feeds from the FAA and a FLARM glider feed.

Click here to find out more about the Plane Finder network.

How we collect our data